Time;durP1;ratioP1;P1;durP2;ratioP2;P2;SDS_P1;SDS_P2;PMS_P1;PMS_P2;Temp;Humidity;BMP_temperature;BMP_pressure;BME280_temperature;BME280_humidity;BME280_pressure;Samples;Min_cycle;Max_cycle;Signal;HPM_P1;HPM_P2
2022/06/23 00:00:04;;;;;;;13.23;7.95;;;18.10;99.90;;;;;;4944040;28;20599;-70
2022/06/23 00:02:33;;;;;;;10.65;7.38;;;18.00;99.90;;;;;;4961097;28;20034;-70
2022/06/23 00:05:03;;;;;;;11.35;7.68;;;18.20;99.90;;;;;;4952816;28;20043;-70
2022/06/23 00:07:32;;;;;;;13.70;7.53;;;18.20;99.90;;;;;;4949197;29;20163;-70
2022/06/23 00:10:00;;;;;;;12.32;8.13;;;18.10;99.80;;;;;;4951746;28;20031;-70
2022/06/23 00:12:31;;;;;;;13.27;8.55;;;18.20;99.70;;;;;;5007866;28;20642;-70
2022/06/23 00:15:02;;;;;;;11.52;7.22;;;18.20;98.70;;;;;;5009745;28;20042;-70
2022/06/23 00:17:44;;;;;;;13.15;7.95;;;18.10;99.10;;;;;;5009556;28;20409;-70
2022/06/23 00:20:16;;;;;;;14.65;8.63;;;18.20;98.60;;;;;;5008924;28;20018;-70
2022/06/23 00:22:45;;;;;;;11.90;7.68;;;17.90;99.90;;;;;;5009768;28;20033;-70
2022/06/23 00:25:49;;;;;;;13.60;7.53;;;18.20;99.90;;;;;;5008835;28;20077;-70
2022/06/23 00:28:19;;;;;;;10.70;7.75;;;17.90;99.90;;;;;;5008965;28;20030;-70
2022/06/23 00:30:52;;;;;;;11.90;9.20;;;18.00;99.90;;;;;;5009376;28;20041;-70
2022/06/23 00:33:21;;;;;;;14.23;9.55;;;18.00;99.90;;;;;;5009221;28;20552;-70
2022/06/23 00:35:50;;;;;;;10.85;7.78;;;18.10;99.90;;;;;;5009051;28;20056;-70
2022/06/23 00:38:29;;;;;;;13.20;8.05;;;18.00;99.90;;;;;;5009242;28;20084;-70
2022/06/23 00:40:56;;;;;;;13.43;9.68;;;17.90;99.70;;;;;;5014966;28;20021;-70
2022/06/23 00:43:23;;;;;;;16.13;9.10;;;17.80;99.90;;;;;;5015777;28;20064;-70
2022/06/23 00:46:15;;;;;;;9.57;8.02;;;17.50;99.90;;;;;;5015783;28;20057;-70
2022/06/23 00:48:45;;;;;;;10.85;8.35;;;17.80;99.90;;;;;;5015525;28;20444;-70
2022/06/23 00:51:11;;;;;;;11.93;8.70;;;17.70;99.90;;;;;;5015482;28;20084;-70
2022/06/23 00:53:48;;;;;;;14.10;9.23;;;17.70;99.90;;;;;;5015443;28;20430;-70
2022/06/23 00:56:37;;;;;;;12.82;9.00;;;17.70;99.90;;;;;;5015706;28;20371;-70
2022/06/23 00:59:15;;;;;;;13.85;8.40;;;17.60;99.90;;;;;;5015670;28;20049;-70
2022/06/23 01:01:56;;;;;;;10.98;8.13;;;17.50;99.90;;;;;;5015572;28;20013;-70
2022/06/23 01:04:39;;;;;;;13.95;9.75;;;17.50;99.90;;;;;;5015064;28;20022;-70
2022/06/23 01:07:50;;;;;;;11.32;8.38;;;17.50;99.90;;;;;;5015440;28;20026;-70
2022/06/23 01:10:21;;;;;;;13.07;9.20;;;17.30;99.90;;;;;;5015268;28;20030;-70
2022/06/23 01:13:13;;;;;;;11.65;9.20;;;17.40;99.90;;;;;;5015653;28;20080;-70
2022/06/23 01:15:44;;;;;;;16.67;9.13;;;17.40;99.90;;;;;;5015258;28;20042;-70
2022/06/23 01:18:21;;;;;;;17.52;9.32;;;18.00;99.90;;;;;;5015030;28;20022;-70
2022/06/23 01:21:07;;;;;;;15.35;9.95;;;17.40;99.90;;;;;;5015355;28;20022;-70
2022/06/23 01:23:48;;;;;;;10.48;9.38;;;17.40;99.90;;;;;;5015588;28;20391;-70
2022/06/23 01:26:27;;;;;;;11.82;9.45;;;17.20;99.90;;;;;;5015239;28;20032;-70
2022/06/23 01:29:11;;;;;;;11.68;8.90;;;17.30;99.90;;;;;;5015650;28;20022;-70
2022/06/23 01:31:46;;;;;;;13.48;9.75;;;17.10;99.90;;;;;;5015610;28;20057;-70
2022/06/23 01:34:36;;;;;;;13.70;8.98;;;17.30;99.90;;;;;;5014404;28;20033;-70
2022/06/23 01:37:10;;;;;;;14.45;9.27;;;17.10;99.90;;;;;;5015176;28;20391;-70
2022/06/23 01:39:53;;;;;;;15.73;10.93;;;17.10;99.90;;;;;;5015168;28;20037;-70
2022/06/23 01:42:24;;;;;;;14.80;9.60;;;17.10;99.90;;;;;;5015014;28;20026;-70
2022/06/23 01:44:51;;;;;;;10.52;9.15;;;17.00;99.90;;;;;;5014925;28;20518;-70
2022/06/23 01:47:20;;;;;;;16.33;9.68;;;17.00;99.90;;;;;;5012926;28;20022;-70
2022/06/23 01:49:51;;;;;;;16.38;9.27;;;16.90;99.90;;;;;;5013468;28;20112;-70
2022/06/23 01:52:19;;;;;;;14.82;9.88;;;16.70;99.90;;;;;;5011248;28;20029;-70
2022/06/23 01:54:50;;;;;;;10.93;9.77;;;16.90;99.90;;;;;;5011677;28;20033;-70
2022/06/23 01:57:31;;;;;;;11.05;9.35;;;17.00;99.90;;;;;;4999014;28;20040;-69
2022/06/23 02:00:14;;;;;;;11.50;9.30;;;16.90;99.90;;;;;;5012225;28;20033;-70
2022/06/23 02:02:45;;;;;;;13.82;10.35;;;16.50;99.90;;;;;;5011610;28;20026;-70
2022/06/23 02:05:28;;;;;;;12.65;8.95;;;16.90;99.90;;;;;;5011596;28;20026;-70
2022/06/23 02:08:24;;;;;;;14.27;9.55;;;17.50;99.90;;;;;;5012307;28;20482;-70
2022/06/23 02:11:00;;;;;;;12.75;10.27;;;16.60;99.90;;;;;;5011647;28;20026;-70
2022/06/23 02:13:54;;;;;;;17.00;10.88;;;16.70;99.90;;;;;;5011708;28;20045;-71
2022/06/23 02:16:40;;;;;;;14.77;9.70;;;16.90;99.90;;;;;;4999773;28;20038;-70
2022/06/23 02:19:27;;;;;;;23.08;10.65;;;16.80;99.90;;;;;;5011446;28;20022;-69
2022/06/23 02:22:28;;;;;;;13.63;10.07;;;16.70;99.90;;;;;;5012197;28;20022;-70
2022/06/23 02:25:03;;;;;;;11.10;9.20;;;16.60;99.90;;;;;;5007805;28;20038;-69
2022/06/23 02:27:44;;;;;;;12.02;9.95;;;16.70;99.90;;;;;;5011343;28;20187;-70
2022/06/23 02:30:27;;;;;;;11.93;9.48;;;16.60;99.90;;;;;;5011069;28;20108;-69
2022/06/23 02:33:20;;;;;;;11.38;9.60;;;16.60;99.90;;;;;;5011608;28;20025;-69
2022/06/23 02:35:53;;;;;;;11.43;8.97;;;16.30;99.90;;;;;;5010097;28;20045;-70
2022/06/23 02:38:40;;;;;;;14.37;10.37;;;16.50;99.90;;;;;;5009899;28;20812;-70
2022/06/23 02:41:14;;;;;;;13.30;8.93;;;16.30;99.90;;;;;;5011139;28;20360;-70
2022/06/23 02:43:52;;;;;;;13.63;9.68;;;16.60;99.90;;;;;;5011416;28;20063;-70
2022/06/23 02:46:55;;;;;;;13.80;9.52;;;16.30;99.90;;;;;;5010464;28;20022;-71
2022/06/23 02:49:50;;;;;;;16.92;9.98;;;16.30;99.90;;;;;;5010890;28;20386;-70
2022/06/23 02:52:18;;;;;;;12.05;8.80;;;16.30;99.90;;;;;;5010824;28;20026;-70
2022/06/23 02:54:57;;;;;;;13.38;9.95;;;16.60;99.90;;;;;;5009481;28;20080;-70
2022/06/23 02:57:22;;;;;;;10.98;8.85;;;16.40;99.90;;;;;;5011059;28;20029;-70
2022/06/23 03:00:11;;;;;;;18.08;10.77;;;16.50;99.90;;;;;;5010520;28;20029;-70
2022/06/23 03:02:56;;;;;;;12.57;10.13;;;16.30;99.90;;;;;;5010665;28;20025;-69
2022/06/23 03:05:55;;;;;;;10.90;8.82;;;16.20;99.90;;;;;;5010531;28;20037;-70
2022/06/23 03:08:37;;;;;;;17.08;9.55;;;16.40;99.90;;;;;;5010654;28;20022;-70
2022/06/23 03:11:14;;;;;;;15.38;9.52;;;16.40;99.90;;;;;;5010716;28;20049;-70
2022/06/23 03:13:49;;;;;;;11.20;9.70;;;16.30;99.90;;;;;;5010031;28;20076;-70
2022/06/23 03:16:23;;;;;;;13.82;9.40;;;16.00;99.90;;;;;;5010576;28;20018;-69
2022/06/23 03:18:48;;;;;;;;;;;16.30;99.90;;;;;;5011198;28;20033;-69
2022/06/23 03:21:23;;;;;;;10.82;9.25;;;16.30;99.90;;;;;;5010487;28;19906;-70
2022/06/23 03:24:19;;;;;;;11.25;9.30;;;16.40;99.90;;;;;;5010470;28;20485;-70
2022/06/23 03:27:15;;;;;;;13.82;10.63;;;16.30;99.90;;;;;;5010552;28;20088;-70
2022/06/23 03:29:50;;;;;;;12.93;9.05;;;16.20;99.90;;;;;;5007113;28;20026;-70
2022/06/23 03:32:46;;;;;;;12.13;9.18;;;15.70;99.90;;;;;;5010326;28;20701;-70
2022/06/23 03:35:37;;;;;;;15.98;10.57;;;16.20;99.90;;;;;;5008721;28;20371;-70
2022/06/23 03:41:48;;;;;;;16.23;10.15;;;16.00;99.90;;;;;;5006312;28;20050;-69
2022/06/23 03:44:17;;;;;;;14.05;10.82;;;16.00;99.90;;;;;;5009645;28;20459;-68
2022/06/23 03:47:06;;;;;;;13.85;10.52;;;16.10;99.90;;;;;;5010090;28;20494;-68
2022/06/23 03:49:40;;;;;;;11.07;9.90;;;16.20;99.90;;;;;;5009891;28;20030;-67
2022/06/23 03:52:34;;;;;;;16.13;9.85;;;16.10;99.90;;;;;;5009488;28;20493;-68
2022/06/23 03:55:06;;;;;;;10.85;8.88;;;16.10;99.90;;;;;;5008435;28;20069;-68
2022/06/23 03:57:40;;;;;;;11.73;9.17;;;16.10;99.90;;;;;;5009485;28;20072;-68
2022/06/23 04:00:19;;;;;;;11.48;9.73;;;16.00;99.90;;;;;;5009584;28;20025;-68
2022/06/23 04:02:50;;;;;;;13.88;9.80;;;16.30;99.90;;;;;;5009973;28;20018;-68
2022/06/23 04:05:29;;;;;;;15.00;8.85;;;16.00;99.90;;;;;;5009386;28;20041;-68
2022/06/23 04:07:59;;;;;;;13.63;10.10;;;16.20;99.90;;;;;;5009940;28;20022;-68
2022/06/23 04:10:32;;;;;;;12.40;10.05;;;16.40;99.90;;;;;;4996266;28;20017;-68
2022/06/23 04:13:05;;;;;;;13.88;9.45;;;16.30;99.90;;;;;;5009431;28;20471;-68
2022/06/23 04:15:35;;;;;;;14.63;10.63;;;16.50;99.90;;;;;;5009105;28;20073;-69
2022/06/23 04:18:06;;;;;;;13.75;9.88;;;16.20;99.90;;;;;;5009305;28;20022;-69
2022/06/23 04:20:41;;;;;;;12.57;9.20;;;16.30;99.90;;;;;;5008231;28;20026;-68
2022/06/23 04:23:21;;;;;;;10.93;8.48;;;16.40;99.90;;;;;;5009267;28;20422;-69
2022/06/23 04:25:56;;;;;;;13.68;9.93;;;16.50;99.90;;;;;;4996634;28;20033;-69
2022/06/23 04:28:32;;;;;;;10.60;9.43;;;16.60;99.90;;;;;;5009162;28;20112;-68
2022/06/23 04:31:00;;;;;;;10.95;9.57;;;16.50;99.90;;;;;;5009710;28;20033;-68
2022/06/23 04:33:27;;;;;;;12.32;9.13;;;16.50;99.90;;;;;;5008342;28;20398;-68
2022/06/23 04:35:58;;;;;;;15.32;10.18;;;16.70;99.90;;;;;;5009714;28;20033;-68
2022/06/23 04:38:33;;;;;;;11.80;9.05;;;16.50;99.90;;;;;;5009086;28;20356;-69
2022/06/23 04:41:14;;;;;;;11.75;9.65;;;16.40;99.90;;;;;;5008683;28;20558;-69
2022/06/23 04:43:45;;;;;;;14.05;9.88;;;16.90;99.90;;;;;;5009694;28;20056;-68
2022/06/23 04:46:19;;;;;;;15.07;10.20;;;16.70;99.90;;;;;;5009155;28;20022;-69
2022/06/23 04:49:03;;;;;;;;;;;16.70;99.90;;;;;;5009840;28;20026;-68
2022/06/23 04:51:38;;;;;;;10.90;9.82;;;16.80;99.90;;;;;;5009169;28;19928;-69
2022/06/23 04:54:09;;;;;;;11.75;8.45;;;16.80;99.90;;;;;;5008878;28;20073;-68
2022/06/23 04:56:38;;;;;;;9.93;8.82;;;17.10;99.90;;;;;;5008882;28;20022;-69
2022/06/23 04:59:29;;;;;;;10.15;7.72;;;17.00;99.90;;;;;;5008849;28;20029;-69
2022/06/23 05:01:57;;;;;;;11.55;7.55;;;17.00;99.90;;;;;;5009462;28;20135;-69
2022/06/23 05:04:27;;;;;;;12.93;8.43;;;16.90;99.90;;;;;;5008760;28;20037;-69
2022/06/23 05:06:55;;;;;;;10.32;8.88;;;17.20;99.90;;;;;;5009084;28;20026;-68
2022/06/23 05:09:26;;;;;;;9.82;7.50;;;17.50;99.90;;;;;;5008925;28;20072;-69
2022/06/23 05:11:56;;;;;;;10.90;7.45;;;17.30;99.90;;;;;;5009320;28;20080;-69
2022/06/23 05:14:33;;;;;;;10.75;8.48;;;17.30;99.90;;;;;;5008602;28;20074;-69
2022/06/23 05:17:16;;;;;;;12.25;8.45;;;17.40;99.90;;;;;;5009042;28;20262;-69
2022/06/23 05:19:42;;;;;;;18.38;9.40;;;17.50;99.90;;;;;;5009002;28;20379;-69
2022/06/23 05:22:36;;;;;;;16.45;9.02;;;17.60;99.90;;;;;;5008149;28;20080;-69
2022/06/23 05:25:31;;;;;;;9.90;8.90;;;17.60;99.90;;;;;;5008454;28;20025;-69
2022/06/23 05:27:57;;;;;;;15.13;9.68;;;17.50;99.70;;;;;;4997669;28;20089;-69
2022/06/23 05:30:29;;;;;;;15.77;9.98;;;17.70;99.90;;;;;;5012485;28;20109;-69
2022/06/23 05:32:57;;;;;;;8.30;7.25;;;17.70;99.90;;;;;;5012457;28;20014;-69
2022/06/23 05:35:32;;;;;;;13.88;9.63;;;17.90;99.70;;;;;;5012310;28;20026;-69
2022/06/23 05:38:14;;;;;;;10.35;8.95;;;17.90;99.90;;;;;;5012838;28;20022;-70
2022/06/23 05:40:57;;;;;;;12.88;8.70;;;18.10;99.90;;;;;;5012174;28;20021;-70
2022/06/23 05:43:25;;;;;;;13.20;8.68;;;18.00;99.90;;;;;;5012107;28;20049;-69
2022/06/23 05:45:57;;;;;;;10.77;7.85;;;18.10;99.20;;;;;;5012572;28;20172;-69
2022/06/23 05:48:44;;;;;;;12.77;8.65;;;18.20;98.40;;;;;;5009395;28;20479;-68
2022/06/23 05:51:09;;;;;;;13.10;8.85;;;18.40;99.30;;;;;;5011412;28;20025;-69
2022/06/23 05:53:41;;;;;;;9.57;8.02;;;18.40;98.30;;;;;;5010645;28;20083;-68
2022/06/23 05:56:19;;;;;;;11.65;8.15;;;18.50;98.90;;;;;;5011315;28;20026;-68
2022/06/23 05:59:02;;;;;;;10.77;9.02;;;18.50;98.90;;;;;;5011894;28;20079;-68
2022/06/23 06:01:28;;;;;;;8.70;7.72;;;18.60;98.70;;;;;;5006470;28;20033;-69
2022/06/23 06:04:03;;;;;;;11.57;7.72;;;18.80;98.20;;;;;;5008088;28;20022;-70
2022/06/23 06:06:29;;;;;;;13.23;9.10;;;18.70;98.40;;;;;;5011682;28;20050;-70
2022/06/23 06:11:53;;;;;;;11.30;8.82;;;19.70;98.20;;;;;;5011998;28;20129;-70
2022/06/23 06:14:24;;;;;;;11.00;7.97;;;18.80;97.80;;;;;;5010906;28;20141;-70
2022/06/23 06:16:52;;;;;;;13.93;8.68;;;19.20;97.90;;;;;;5011503;28;20116;-70
2022/06/23 06:19:21;;;;;;;20.20;11.10;;;18.80;97.60;;;;;;5011485;28;20029;-70
2022/06/23 06:21:50;;;;;;;15.10;9.18;;;18.90;97.70;;;;;;5011712;28;20037;-70
2022/06/23 06:24:31;;;;;;;10.07;9.10;;;19.00;97.60;;;;;;5009544;28;20022;-70
2022/06/23 06:26:59;;;;;;;15.90;8.98;;;19.00;96.50;;;;;;5011775;28;20026;-70
2022/06/23 06:29:29;;;;;;;14.07;8.73;;;20.10;97.50;;;;;;5011376;28;20069;-69
2022/06/23 06:32:22;;;;;;;12.30;8.07;;;20.40;97.70;;;;;;5012070;28;20416;-70
2022/06/23 06:34:53;;;;;;;10.68;9.25;;;19.20;96.60;;;;;;5010327;28;20505;-69
2022/06/23 06:37:21;;;;;;;12.63;8.35;;;19.40;99.90;;;;;;5010524;28;20258;-69
2022/06/23 06:39:52;;;;;;;13.07;8.38;;;19.30;96.90;;;;;;5010033;28;20045;-69
2022/06/23 06:42:23;;;;;;;14.05;8.98;;;19.60;97.10;;;;;;5011014;28;20022;-70
2022/06/23 06:44:52;;;;;;;11.02;8.40;;;19.50;96.90;;;;;;5011350;28;20364;-70
2022/06/23 06:47:19;;;;;;;14.25;7.90;;;19.60;96.70;;;;;;5010642;28;20081;-70
2022/06/23 06:49:46;;;;;;;12.68;8.55;;;19.60;96.50;;;;;;5011089;28;20033;-70
2022/06/23 06:52:13;;;;;;;9.30;7.43;;;19.70;96.20;;;;;;5010413;28;20024;-70
2022/06/23 06:54:46;;;;;;;10.63;7.43;;;20.00;96.10;;;;;;5010972;28;20116;-70
2022/06/23 06:57:16;;;;;;;;;;;20.10;96.20;;;;;;5011408;28;20048;-70
2022/06/23 06:59:44;;;;;;;13.55;8.75;;;20.20;96.30;;;;;;5011062;28;19905;-70
2022/06/23 07:02:17;;;;;;;9.65;7.82;;;20.20;95.20;;;;;;5010619;28;20037;-69
2022/06/23 07:04:55;;;;;;;12.80;9.20;;;20.00;95.70;;;;;;5010856;28;20025;-70
2022/06/23 07:07:28;;;;;;;13.15;8.80;;;20.30;95.00;;;;;;5010151;28;20486;-70
2022/06/23 07:10:11;;;;;;;8.65;7.75;;;20.20;95.70;;;;;;5011114;28;20025;-70
2022/06/23 07:12:49;;;;;;;12.80;7.32;;;21.20;95.70;;;;;;5010721;28;20034;-70
2022/06/23 07:15:27;;;;;;;8.43;6.53;;;20.50;95.50;;;;;;5010177;28;20057;-70
2022/06/23 07:18:02;;;;;;;10.23;7.68;;;21.50;95.70;;;;;;5010905;28;20088;-70
2022/06/23 07:20:32;;;;;;;11.60;8.35;;;20.90;94.50;;;;;;5006213;28;20025;-70
2022/06/23 07:23:01;;;;;;;8.18;7.13;;;20.90;99.90;;;;;;5010709;28;20033;-70
2022/06/23 07:25:34;;;;;;;9.57;7.30;;;21.00;94.10;;;;;;5010146;28;20040;-70
2022/06/23 07:28:02;;;;;;;8.05;6.80;;;21.10;94.30;;;;;;5010277;28;20052;-70
2022/06/23 07:30:33;;;;;;;14.52;8.20;;;21.30;93.90;;;;;;5009555;28;20018;-69
2022/06/23 07:33:27;;;;;;;8.85;8.00;;;21.30;93.90;;;;;;5009340;28;20034;-70
2022/06/23 07:35:58;;;;;;;10.43;6.80;;;21.50;93.10;;;;;;5008893;28;20102;-69
2022/06/23 07:38:42;;;;;;;11.32;7.30;;;21.40;92.40;;;;;;5007124;28;20072;-69
2022/06/23 07:41:23;;;;;;;10.30;7.97;;;21.70;92.70;;;;;;5008506;28;20025;-67
2022/06/23 07:44:22;;;;;;;8.95;8.15;;;21.70;93.40;;;;;;5005248;28;20026;-68
2022/06/23 07:46:48;;;;;;;9.30;6.40;;;22.00;92.00;;;;;;5006127;28;20506;-69
2022/06/23 07:49:14;;;;;;;10.07;6.60;;;22.10;92.40;;;;;;5006431;28;20150;-69
2022/06/23 07:51:41;;;;;;;8.57;6.82;;;22.20;92.20;;;;;;5008125;28;20429;-71
2022/06/23 07:54:10;;;;;;;9.30;7.13;;;22.40;92.00;;;;;;5008184;28;20058;-69
2022/06/23 07:56:39;;;;;;;10.63;6.40;;;22.60;91.90;;;;;;5008130;28;20042;-69
2022/06/23 07:59:11;;;;;;;7.68;6.05;;;22.70;91.90;;;;;;5006840;28;20022;-69
2022/06/23 08:01:58;;;;;;;8.27;6.85;;;22.50;91.70;;;;;;5008093;28;20026;-69
2022/06/23 08:05:03;;;;;;;8.80;6.65;;;24.10;92.10;;;;;;5007580;28;20022;-68
2022/06/23 08:07:30;;;;;;;7.72;5.35;;;23.10;90.70;;;;;;5008234;28;20021;-68
2022/06/23 08:10:00;;;;;;;9.55;6.55;;;23.10;90.70;;;;;;5008430;28;20066;-69
2022/06/23 08:18:26;;;;;;;7.60;5.93;;;23.50;90.10;;;;;;4997733;28;20474;-69
2022/06/23 08:21:16;;;;;;;7.70;6.80;;;23.50;88.90;;;;;;5008803;28;20076;-69
2022/06/23 08:23:52;;;;;;;7.40;6.65;;;23.70;88.60;;;;;;5009036;28;20048;-69
2022/06/23 08:26:19;;;;;;;6.18;5.57;;;23.70;89.00;;;;;;5009038;28;20018;-69
2022/06/23 08:28:48;;;;;;;8.63;6.03;;;23.80;90.00;;;;;;5009321;28;20041;-69
2022/06/23 08:31:14;;;;;;;10.68;6.75;;;23.90;89.90;;;;;;5023648;28;20033;-69
2022/06/23 08:33:40;;;;;;;14.02;7.30;;;24.10;88.60;;;;;;5007361;28;20406;-69
2022/06/23 08:36:11;;;;;;;9.48;5.50;;;24.20;88.70;;;;;;5008462;28;20029;-69
2022/06/23 08:38:53;;;;;;;12.02;5.20;;;24.20;88.60;;;;;;5008792;28;20018;-69
2022/06/23 08:41:33;;;;;;;6.53;5.50;;;24.20;87.20;;;;;;5008493;28;20354;-69
2022/06/23 08:44:04;;;;;;;8.55;6.03;;;24.30;89.20;;;;;;5009275;28;20127;-69
2022/06/23 08:46:54;;;;;;;9.65;6.30;;;24.50;86.30;;;;;;5008961;28;20379;-69
2022/06/23 08:49:30;;;;;;;7.90;5.82;;;24.70;89.50;;;;;;5008861;28;20042;-71
2022/06/23 08:51:56;;;;;;;7.63;4.90;;;26.20;89.90;;;;;;5008999;28;20117;-70
2022/06/23 08:54:38;;;;;;;7.40;6.35;;;24.90;88.10;;;;;;5008494;28;20109;-70
2022/06/23 08:57:15;;;;;;;8.80;6.78;;;25.00;89.00;;;;;;5008457;28;20068;-69
2022/06/23 08:59:55;;;;;;;6.47;5.43;;;25.00;86.60;;;;;;5009016;28;20030;-70
2022/06/23 09:02:37;;;;;;;9.30;7.53;;;25.10;86.90;;;;;;5011764;28;20478;-70
2022/06/23 09:05:14;;;;;;;10.18;6.13;;;25.20;86.30;;;;;;5012786;28;20025;-70
2022/06/23 09:07:52;;;;;;;9.52;6.85;;;25.10;87.80;;;;;;5012484;28;20022;-70
2022/06/23 09:10:45;;;;;;;10.50;6.90;;;25.20;85.50;;;;;;5012159;28;20033;-70
2022/06/23 09:13:35;;;;;;;10.25;7.47;;;25.30;88.50;;;;;;5012246;28;20033;-69
2022/06/23 09:16:38;;;;;;;7.63;6.90;;;25.50;86.50;;;;;;5011914;28;20034;-69
2022/06/23 09:19:21;;;;;;;7.05;5.78;;;25.50;86.00;;;;;;5012193;28;20022;-71
2022/06/23 09:22:01;;;;;;;10.43;5.20;;;25.50;86.00;;;;;;5010134;28;20033;-70
2022/06/23 09:24:48;;;;;;;9.73;7.07;;;25.60;86.30;;;;;;5006623;28;20034;-69
2022/06/23 09:27:22;;;;;;;8.52;6.43;;;25.70;85.90;;;;;;4996067;28;20022;-69
2022/06/23 09:29:56;;;;;;;8.38;5.10;;;25.70;84.50;;;;;;4998633;28;20041;-69
2022/06/23 09:32:50;;;;;;;10.13;6.32;;;25.80;85.70;;;;;;5011435;28;20739;-69
2022/06/23 09:35:46;;;;;;;7.60;5.68;;;26.00;85.60;;;;;;5010346;28;20115;-69
2022/06/23 09:38:23;;;;;;;10.73;6.97;;;26.10;84.50;;;;;;5006074;28;20197;-69
2022/06/23 09:41:19;;;;;;;8.63;4.93;;;26.10;83.50;;;;;;5011629;28;20137;-69
2022/06/23 09:44:18;;;;;;;7.13;5.00;;;26.10;83.80;;;;;;5009931;28;20052;-70
2022/06/23 09:46:58;;;;;;;7.60;5.03;;;26.20;83.90;;;;;;5011274;28;20092;-67
2022/06/23 09:49:42;;;;;;;9.55;6.32;;;26.30;86.00;;;;;;5011360;28;20025;-69
2022/06/23 09:52:45;;;;;;;8.23;5.55;;;26.30;82.10;;;;;;5011430;28;20084;-69
2022/06/23 09:55:32;;;;;;;8.23;6.22;;;26.50;83.10;;;;;;5011468;28;20096;-69
2022/06/23 09:58:26;;;;;;;7.35;5.05;;;26.30;83.30;;;;;;5011817;28;20344;-69
2022/06/23 10:01:18;;;;;;;6.07;4.22;;;26.40;85.10;;;;;;5011460;28;20018;-71
2022/06/23 10:04:11;;;;;;;9.07;5.18;;;26.50;84.50;;;;;;4979267;28;20038;-72
2022/06/23 10:06:58;;;;;;;8.07;4.32;;;26.90;85.00;;;;;;5009939;28;20029;-70
2022/06/23 10:10:02;;;;;;;6.88;3.63;;;26.90;82.90;;;;;;5010862;28;20090;-69
2022/06/23 10:12:53;;;;;;;6.97;4.40;;;26.90;82.40;;;;;;5007286;28;20026;-69
2022/06/23 10:15:27;;;;;;;9.52;4.03;;;27.00;82.10;;;;;;5009945;28;20045;-70
2022/06/23 10:18:28;;;;;;;10.10;4.90;;;27.20;84.20;;;;;;5009076;28;20040;-70
2022/06/23 10:20:56;;;;;;;8.07;4.05;;;27.10;81.80;;;;;;4999025;28;20014;-69
2022/06/23 10:23:46;;;;;;;7.50;4.30;;;27.20;82.40;;;;;;5010385;28;20036;-69
2022/06/23 10:26:28;;;;;;;7.22;3.95;;;27.40;81.10;;;;;;5010642;28;20044;-69
2022/06/23 10:29:02;;;;;;;9.95;3.28;;;28.50;82.80;;;;;;5010542;28;20049;-69
2022/06/23 10:31:37;;;;;;;5.35;2.97;;;27.50;82.60;;;;;;5011032;28;20116;-69
2022/06/23 10:34:21;;;;;;;5.40;3.42;;;27.50;79.30;;;;;;5010867;28;20430;-69
2022/06/23 10:36:46;;;;;;;;;;;27.60;81.20;;;;;;5011335;28;20033;-70
2022/06/23 10:39:36;;;;;;;12.02;4.32;;;27.90;81.00;;;;;;5010279;28;19909;-71
2022/06/23 10:42:23;;;;;;;8.43;3.40;;;27.80;78.40;;;;;;5010267;28;20030;-69
2022/06/23 10:45:17;;;;;;;9.98;3.13;;;27.90;80.50;;;;;;5010012;28;20497;-70
2022/06/23 10:47:42;;;;;;;;;;;30.30;80.50;;;;;;5010967;28;20101;-70
2022/06/23 10:50:35;;;;;;;8.68;3.20;;;29.30;80.50;;;;;;5009743;28;19993;-69
2022/06/23 10:53:00;;;;;;;5.03;3.47;;;28.20;78.20;;;;;;5009856;28;20113;-69
2022/06/23 10:56:00;;;;;;;6.68;3.15;;;28.30;78.90;;;;;;5010385;28;20399;-69
2022/06/23 10:58:44;;;;;;;6.05;3.15;;;28.30;79.70;;;;;;5009230;28;20034;-69
2022/06/23 11:01:34;;;;;;;4.88;3.63;;;28.50;79.40;;;;;;5008693;28;20029;-69
2022/06/23 11:04:28;;;;;;;6.15;2.78;;;28.50;76.00;;;;;;5005618;28;20446;-69
2022/06/23 11:06:57;;;;;;;6.45;2.45;;;28.50;76.20;;;;;;5010546;28;20026;-69
2022/06/23 11:09:37;;;;;;;5.10;2.83;;;29.30;78.40;;;;;;5009628;28;20072;-69
2022/06/23 11:12:22;;;;;;;8.27;2.80;;;28.60;76.30;;;;;;5007497;28;20045;-69
2022/06/23 11:14:57;;;;;;;7.70;3.17;;;28.70;78.80;;;;;;5009320;28;20054;-70
2022/06/23 11:18:00;;;;;;;7.05;3.47;;;28.90;78.10;;;;;;5009664;28;20021;-70
2022/06/23 11:20:51;;;;;;;5.70;2.53;;;28.90;76.20;;;;;;5010369;28;20024;-69
2022/06/23 11:23:29;;;;;;;4.50;2.80;;;29.00;75.80;;;;;;5009584;28;20037;-69
2022/06/23 11:26:15;;;;;;;7.75;3.28;;;29.40;77.30;;;;;;5010324;28;20013;-69
2022/06/23 11:29:09;;;;;;;7.18;3.92;;;28.90;74.70;;;;;;5009400;28;20490;-69
2022/06/23 11:32:06;;;;;;;7.25;3.17;;;29.00;75.70;;;;;;5009395;28;20159;-69
2022/06/23 11:35:01;;;;;;;5.05;4.15;;;28.90;75.80;;;;;;5007649;28;20541;-70
2022/06/23 11:38:03;;;;;;;12.82;3.97;;;29.10;75.50;;;;;;5000682;28;20022;-69
2022/06/23 11:40:47;;;;;;;7.60;4.15;;;29.60;75.90;;;;;;5009687;28;20022;-69
2022/06/23 11:43:46;;;;;;;6.38;3.50;;;29.30;73.90;;;;;;5008537;28;20483;-70
2022/06/23 11:46:34;;;;;;;8.63;3.63;;;29.50;76.60;;;;;;4994692;28;20048;-69
2022/06/23 11:49:02;;;;;;;9.73;3.05;;;30.60;77.00;;;;;;5009576;28;20030;-69
2022/06/23 11:51:44;;;;;;;6.53;3.28;;;29.40;73.40;;;;;;5009731;28;20042;-69
2022/06/23 11:54:26;;;;;;;7.18;3.83;;;29.50;72.60;;;;;;5009480;28;20038;-69
2022/06/23 11:57:14;;;;;;;6.20;3.47;;;29.50;73.50;;;;;;5009339;28;20022;-70
2022/06/23 11:59:56;;;;;;;9.20;4.18;;;29.50;72.10;;;;;;5004418;28;20144;-70
2022/06/23 12:02:21;;;;;;;7.03;3.38;;;29.60;74.20;;;;;;5009462;28;20018;-70
2022/06/23 12:05:05;;;;;;;6.38;3.70;;;29.60;73.70;;;;;;5008970;28;20509;-69
2022/06/23 12:07:35;;;;;;;;;;;29.70;74.70;;;;;;5009522;28;20026;-68
2022/06/23 12:10:18;;;;;;;7.15;3.80;;;29.90;75.10;;;;;;4993882;28;19910;-70
2022/06/23 12:12:46;;;;;;;10.82;3.60;;;29.80;72.20;;;;;;5004144;28;20494;-70
2022/06/23 12:15:17;;;;;;;9.75;4.07;;;29.80;73.20;;;;;;5009176;28;20054;-70
2022/06/23 12:17:47;;;;;;;11.80;3.45;;;29.50;74.30;;;;;;5006295;28;20047;-70
2022/06/23 12:20:39;;;;;;;7.93;4.57;;;30.00;72.70;;;;;;5009050;28;20022;-70
2022/06/23 12:23:12;;;;;;;5.93;2.67;;;29.80;71.30;;;;;;5009148;28;20029;-70
2022/06/23 12:25:43;;;;;;;5.55;3.00;;;29.90;70.30;;;;;;5008793;28;20022;-69
2022/06/23 12:28:21;;;;;;;7.22;2.35;;;30.00;70.60;;;;;;5009282;28;20079;-69
2022/06/23 12:31:00;;;;;;;8.68;2.67;;;30.10;69.50;;;;;;5007722;28;20343;-69
2022/06/23 12:33:48;;;;;;;10.82;3.95;;;30.10;69.90;;;;;;5009379;28;20018;-70
2022/06/23 12:36:26;;;;;;;5.47;2.55;;;30.80;71.60;;;;;;5008426;28;20495;-70
2022/06/23 12:39:04;;;;;;;4.53;2.13;;;30.40;71.30;;;;;;5001489;28;20018;-70
2022/06/23 12:41:43;;;;;;;6.47;2.83;;;31.00;71.40;;;;;;5009131;28;20026;-70
2022/06/23 12:44:08;;;;;;;9.98;2.80;;;30.60;70.40;;;;;;5009023;28;20033;-70
2022/06/23 12:47:02;;;;;;;5.72;2.20;;;30.60;69.60;;;;;;5009089;28;20026;-70
2022/06/23 12:49:44;;;;;;;4.30;2.70;;;30.50;68.40;;;;;;5007608;28;20105;-70
2022/06/23 12:52:34;;;;;;;7.88;2.30;;;30.70;86.10;;;;;;5006483;28;20100;-69
2022/06/23 12:55:14;;;;;;;10.55;2.90;;;30.60;68.30;;;;;;5007191;28;20042;-70
2022/06/23 12:57:52;;;;;;;8.10;2.60;;;30.50;68.10;;;;;;5009032;28;20029;-70
2022/06/23 13:00:51;;;;;;;8.05;1.98;;;30.40;67.50;;;;;;5009127;28;20060;-70
2022/06/23 13:03:41;;;;;;;4.75;2.22;;;30.40;68.60;;;;;;4980667;28;20036;-70
2022/06/23 13:06:32;;;;;;;9.60;2.92;;;30.30;68.50;;;;;;5012351;28;20033;-70
2022/06/23 13:09:24;;;;;;;6.63;2.67;;;30.40;68.40;;;;;;5008668;28;20495;-71
2022/06/23 13:12:03;;;;;;;9.60;2.60;;;30.90;69.70;;;;;;5005986;28;20195;-69
2022/06/23 13:14:50;;;;;;;8.35;3.05;;;30.50;67.80;;;;;;5008716;28;20085;-70
2022/06/23 13:18:01;;;;;;;8.40;2.80;;;30.60;67.80;;;;;;5009124;28;20034;-69
2022/06/23 13:20:47;;;;;;;10.40;2.92;;;30.70;68.20;;;;;;4998586;28;20061;-69
2022/06/23 13:23:20;;;;;;;7.90;2.97;;;30.80;69.70;;;;;;5007729;28;20048;-69
2022/06/23 13:25:51;;;;;;;9.75;2.97;;;30.80;70.00;;;;;;5008314;28;20487;-68
2022/06/23 13:28:39;;;;;;;7.30;3.10;;;30.60;69.30;;;;;;5008315;28;20489;-68
2022/06/23 13:31:39;;;;;;;9.15;2.55;;;30.90;69.60;;;;;;5008365;28;20022;-70
2022/06/23 13:34:27;;;;;;;7.43;2.88;;;30.80;67.20;;;;;;5005883;28;20152;-70
2022/06/23 13:37:04;;;;;;;5.68;2.30;;;30.80;69.10;;;;;;5007184;28;20022;-70
2022/06/23 13:39:55;;;;;;;6.97;2.53;;;30.80;66.60;;;;;;5008544;28;20502;-69
2022/06/23 13:42:47;;;;;;;10.55;3.45;;;31.20;67.10;;;;;;5008448;28;20168;-71
2022/06/23 13:45:24;;;;;;;10.07;3.42;;;31.20;66.20;;;;;;5008683;28;20026;-70
2022/06/23 13:48:02;;;;;;;5.38;2.92;;;31.00;65.80;;;;;;5010226;28;20038;-69
2022/06/23 13:50:28;;;;;;;7.30;2.97;;;31.10;67.70;;;;;;4994125;28;20599;-69
2022/06/23 13:53:03;;;;;;;6.80;3.40;;;31.20;66.90;;;;;;5002072;28;20100;-69
2022/06/23 13:55:47;;;;;;;5.60;2.13;;;31.20;67.30;;;;;;5007761;28;20030;-69